sensor_id;sensor_type;location;lat;lon;timestamp;P1;durP1;ratioP1;P2;durP2;ratioP2
21868;SDS011;11099;41.564;23.296;2023-04-19T00:00:39;14.65;;;10.73;;
21868;SDS011;11099;41.564;23.296;2023-04-19T00:03:05;18.15;;;12.25;;
21868;SDS011;11099;41.564;23.296;2023-04-19T00:05:31;18.20;;;15.38;;
21868;SDS011;11099;41.564;23.296;2023-04-19T00:07:57;24.63;;;18.05;;
21868;SDS011;11099;41.564;23.296;2023-04-19T00:10:23;26.08;;;18.85;;
21868;SDS011;11099;41.564;23.296;2023-04-19T00:12:50;25.58;;;17.92;;
21868;SDS011;11099;41.564;23.296;2023-04-19T00:15:15;24.70;;;17.77;;
21868;SDS011;11099;41.564;23.296;2023-04-19T00:17:41;22.25;;;16.60;;
21868;SDS011;11099;41.564;23.296;2023-04-19T00:20:08;24.90;;;18.05;;
21868;SDS011;11099;41.564;23.296;2023-04-19T00:22:34;17.90;;;14.30;;
21868;SDS011;11099;41.564;23.296;2023-04-19T00:25:00;21.10;;;14.18;;
21868;SDS011;11099;41.564;23.296;2023-04-19T00:27:26;21.40;;;15.25;;
21868;SDS011;11099;41.564;23.296;2023-04-19T00:29:52;18.25;;;14.25;;
21868;SDS011;11099;41.564;23.296;2023-04-19T00:32:17;21.95;;;14.50;;
21868;SDS011;11099;41.564;23.296;2023-04-19T00:34:43;24.35;;;15.70;;
21868;SDS011;11099;41.564;23.296;2023-04-19T00:37:08;22.23;;;15.35;;
21868;SDS011;11099;41.564;23.296;2023-04-19T00:39:35;14.27;;;11.10;;
21868;SDS011;11099;41.564;23.296;2023-04-19T00:42:01;13.70;;;10.95;;
21868;SDS011;11099;41.564;23.296;2023-04-19T00:44:26;14.77;;;10.65;;
21868;SDS011;11099;41.564;23.296;2023-04-19T00:46:52;13.70;;;9.65;;
21868;SDS011;11099;41.564;23.296;2023-04-19T00:49:19;15.63;;;10.68;;
21868;SDS011;11099;41.564;23.296;2023-04-19T00:51:45;13.05;;;10.80;;
21868;SDS011;11099;41.564;23.296;2023-04-19T00:54:11;16.08;;;11.40;;
21868;SDS011;11099;41.564;23.296;2023-04-19T00:56:38;13.88;;;10.60;;
21868;SDS011;11099;41.564;23.296;2023-04-19T00:59:04;14.35;;;9.25;;
21868;SDS011;11099;41.564;23.296;2023-04-19T01:01:30;12.27;;;9.35;;
21868;SDS011;11099;41.564;23.296;2023-04-19T01:03:56;12.15;;;9.60;;
21868;SDS011;11099;41.564;23.296;2023-04-19T01:06:22;14.38;;;8.40;;
21868;SDS011;11099;41.564;23.296;2023-04-19T01:08:48;11.60;;;7.88;;
21868;SDS011;11099;41.564;23.296;2023-04-19T01:11:13;8.82;;;7.28;;
21868;SDS011;11099;41.564;23.296;2023-04-19T01:13:38;8.85;;;7.30;;
21868;SDS011;11099;41.564;23.296;2023-04-19T01:16:05;6.82;;;6.18;;
21868;SDS011;11099;41.564;23.296;2023-04-19T01:18:31;7.50;;;6.60;;
21868;SDS011;11099;41.564;23.296;2023-04-19T01:21:02;8.65;;;6.97;;
21868;SDS011;11099;41.564;23.296;2023-04-19T01:23:28;8.93;;;7.70;;
21868;SDS011;11099;41.564;23.296;2023-04-19T01:25:53;8.80;;;7.57;;
21868;SDS011;11099;41.564;23.296;2023-04-19T01:28:19;9.32;;;7.88;;
21868;SDS011;11099;41.564;23.296;2023-04-19T01:30:44;9.77;;;7.90;;
21868;SDS011;11099;41.564;23.296;2023-04-19T01:33:10;10.82;;;7.30;;
21868;SDS011;11099;41.564;23.296;2023-04-19T01:35:35;9.15;;;7.70;;
21868;SDS011;11099;41.564;23.296;2023-04-19T01:38:01;9.88;;;8.00;;
21868;SDS011;11099;41.564;23.296;2023-04-19T01:40:26;8.18;;;6.97;;
21868;SDS011;11099;41.564;23.296;2023-04-19T01:42:52;7.75;;;6.80;;
21868;SDS011;11099;41.564;23.296;2023-04-19T01:45:18;7.82;;;7.03;;
21868;SDS011;11099;41.564;23.296;2023-04-19T01:47:44;10.50;;;7.15;;
21868;SDS011;11099;41.564;23.296;2023-04-19T01:50:09;11.13;;;7.68;;
21868;SDS011;11099;41.564;23.296;2023-04-19T01:52:35;12.77;;;7.63;;
21868;SDS011;11099;41.564;23.296;2023-04-19T01:55:00;11.10;;;8.90;;
21868;SDS011;11099;41.564;23.296;2023-04-19T01:57:26;10.52;;;9.15;;
21868;SDS011;11099;41.564;23.296;2023-04-19T01:59:52;11.75;;;10.50;;
21868;SDS011;11099;41.564;23.296;2023-04-19T02:02:18;13.40;;;9.45;;
21868;SDS011;11099;41.564;23.296;2023-04-19T02:04:43;9.40;;;8.18;;
21868;SDS011;11099;41.564;23.296;2023-04-19T02:07:09;9.93;;;7.93;;
21868;SDS011;11099;41.564;23.296;2023-04-19T02:09:35;6.82;;;6.15;;
21868;SDS011;11099;41.564;23.296;2023-04-19T02:12:02;6.45;;;5.55;;
21868;SDS011;11099;41.564;23.296;2023-04-19T02:14:29;7.13;;;6.50;;
21868;SDS011;11099;41.564;23.296;2023-04-19T02:16:55;7.22;;;6.18;;
21868;SDS011;11099;41.564;23.296;2023-04-19T02:19:20;7.00;;;6.07;;
21868;SDS011;11099;41.564;23.296;2023-04-19T02:21:46;6.93;;;6.32;;
21868;SDS011;11099;41.564;23.296;2023-04-19T02:24:11;6.85;;;6.15;;
21868;SDS011;11099;41.564;23.296;2023-04-19T02:26:37;8.65;;;6.28;;
21868;SDS011;11099;41.564;23.296;2023-04-19T02:29:03;7.72;;;7.03;;
21868;SDS011;11099;41.564;23.296;2023-04-19T02:31:29;8.43;;;7.30;;
21868;SDS011;11099;41.564;23.296;2023-04-19T02:33:54;9.40;;;7.90;;
21868;SDS011;11099;41.564;23.296;2023-04-19T02:36:20;11.23;;;9.25;;
21868;SDS011;11099;41.564;23.296;2023-04-19T02:38:45;10.35;;;9.25;;
21868;SDS011;11099;41.564;23.296;2023-04-19T02:41:11;9.48;;;8.52;;
21868;SDS011;11099;41.564;23.296;2023-04-19T02:43:36;12.00;;;7.85;;
21868;SDS011;11099;41.564;23.296;2023-04-19T02:46:02;11.15;;;9.35;;
21868;SDS011;11099;41.564;23.296;2023-04-19T02:48:27;12.85;;;9.77;;
21868;SDS011;11099;41.564;23.296;2023-04-19T02:50:53;12.10;;;9.63;;
21868;SDS011;11099;41.564;23.296;2023-04-19T02:53:18;13.60;;;9.13;;
21868;SDS011;11099;41.564;23.296;2023-04-19T02:55:44;13.05;;;10.23;;
21868;SDS011;11099;41.564;23.296;2023-04-19T02:58:09;11.20;;;10.00;;
21868;SDS011;11099;41.564;23.296;2023-04-19T03:00:35;13.13;;;9.95;;
21868;SDS011;11099;41.564;23.296;2023-04-19T03:03:01;14.00;;;10.25;;
21868;SDS011;11099;41.564;23.296;2023-04-19T03:05:28;14.93;;;9.75;;
21868;SDS011;11099;41.564;23.296;2023-04-19T03:07:54;10.48;;;9.48;;
21868;SDS011;11099;41.564;23.296;2023-04-19T03:10:19;21.65;;;9.15;;
21868;SDS011;11099;41.564;23.296;2023-04-19T03:12:45;10.45;;;8.02;;
21868;SDS011;11099;41.564;23.296;2023-04-19T03:15:10;11.30;;;9.02;;
21868;SDS011;11099;41.564;23.296;2023-04-19T03:17:36;8.32;;;7.53;;
21868;SDS011;11099;41.564;23.296;2023-04-19T03:20:01;11.38;;;7.72;;
21868;SDS011;11099;41.564;23.296;2023-04-19T03:22:28;9.30;;;7.55;;
21868;SDS011;11099;41.564;23.296;2023-04-19T03:24:53;8.13;;;7.00;;
21868;SDS011;11099;41.564;23.296;2023-04-19T03:27:18;10.18;;;7.65;;
21868;SDS011;11099;41.564;23.296;2023-04-19T03:29:44;9.68;;;7.80;;
21868;SDS011;11099;41.564;23.296;2023-04-19T03:32:10;9.70;;;8.63;;
21868;SDS011;11099;41.564;23.296;2023-04-19T03:34:35;8.10;;;7.00;;
21868;SDS011;11099;41.564;23.296;2023-04-19T03:37:01;8.73;;;7.55;;
21868;SDS011;11099;41.564;23.296;2023-04-19T03:39:26;11.27;;;8.75;;
21868;SDS011;11099;41.564;23.296;2023-04-19T03:41:52;10.05;;;8.93;;
21868;SDS011;11099;41.564;23.296;2023-04-19T03:44:17;12.35;;;10.20;;
21868;SDS011;11099;41.564;23.296;2023-04-19T03:46:43;76.40;;;50.55;;
21868;SDS011;11099;41.564;23.296;2023-04-19T03:49:10;56.55;;;37.60;;
21868;SDS011;11099;41.564;23.296;2023-04-19T03:51:36;40.35;;;26.90;;
21868;SDS011;11099;41.564;23.296;2023-04-19T03:54:01;35.10;;;22.30;;
21868;SDS011;11099;41.564;23.296;2023-04-19T03:56:27;28.50;;;20.50;;
21868;SDS011;11099;41.564;23.296;2023-04-19T03:58:53;33.95;;;24.33;;
21868;SDS011;11099;41.564;23.296;2023-04-19T04:01:18;31.00;;;22.92;;
21868;SDS011;11099;41.564;23.296;2023-04-19T04:03:45;29.30;;;19.83;;
21868;SDS011;11099;41.564;23.296;2023-04-19T04:06:11;45.60;;;29.67;;
21868;SDS011;11099;41.564;23.296;2023-04-19T04:08:36;31.27;;;23.70;;
21868;SDS011;11099;41.564;23.296;2023-04-19T04:11:02;29.10;;;20.30;;
21868;SDS011;11099;41.564;23.296;2023-04-19T04:13:27;24.60;;;18.90;;
21868;SDS011;11099;41.564;23.296;2023-04-19T04:15:53;26.25;;;19.88;;
21868;SDS011;11099;41.564;23.296;2023-04-19T04:18:18;43.22;;;32.70;;
21868;SDS011;11099;41.564;23.296;2023-04-19T04:20:44;59.65;;;43.25;;
21868;SDS011;11099;41.564;23.296;2023-04-19T04:23:10;37.90;;;26.98;;
21868;SDS011;11099;41.564;23.296;2023-04-19T04:25:35;24.42;;;18.20;;
21868;SDS011;11099;41.564;23.296;2023-04-19T04:28:04;20.83;;;16.13;;
21868;SDS011;11099;41.564;23.296;2023-04-19T04:30:31;24.98;;;17.77;;
21868;SDS011;11099;41.564;23.296;2023-04-19T04:32:57;18.80;;;15.52;;
21868;SDS011;11099;41.564;23.296;2023-04-19T04:35:23;24.52;;;19.65;;
21868;SDS011;11099;41.564;23.296;2023-04-19T04:37:49;23.45;;;17.58;;
21868;SDS011;11099;41.564;23.296;2023-04-19T04:40:14;21.23;;;16.85;;
21868;SDS011;11099;41.564;23.296;2023-04-19T04:42:40;19.00;;;16.10;;
21868;SDS011;11099;41.564;23.296;2023-04-19T04:45:07;25.52;;;19.15;;
21868;SDS011;11099;41.564;23.296;2023-04-19T04:47:35;23.05;;;18.13;;
21868;SDS011;11099;41.564;23.296;2023-04-19T04:50:01;27.60;;;19.90;;
21868;SDS011;11099;41.564;23.296;2023-04-19T04:52:27;28.25;;;22.20;;
21868;SDS011;11099;41.564;23.296;2023-04-19T04:54:53;26.65;;;19.83;;
21868;SDS011;11099;41.564;23.296;2023-04-19T04:57:19;29.35;;;22.95;;
21868;SDS011;11099;41.564;23.296;2023-04-19T04:59:45;32.05;;;25.02;;
21868;SDS011;11099;41.564;23.296;2023-04-19T05:02:12;31.63;;;21.48;;
21868;SDS011;11099;41.564;23.296;2023-04-19T05:04:38;23.75;;;17.15;;
21868;SDS011;11099;41.564;23.296;2023-04-19T05:07:03;21.50;;;16.20;;
21868;SDS011;11099;41.564;23.296;2023-04-19T05:09:29;23.52;;;17.02;;
21868;SDS011;11099;41.564;23.296;2023-04-19T05:11:55;20.05;;;16.10;;
21868;SDS011;11099;41.564;23.296;2023-04-19T05:14:20;23.88;;;17.17;;
21868;SDS011;11099;41.564;23.296;2023-04-19T05:16:45;22.75;;;16.08;;
21868;SDS011;11099;41.564;23.296;2023-04-19T05:19:11;22.00;;;17.42;;
21868;SDS011;11099;41.564;23.296;2023-04-19T05:21:37;21.95;;;15.38;;
21868;SDS011;11099;41.564;23.296;2023-04-19T05:24:02;22.33;;;17.17;;
21868;SDS011;11099;41.564;23.296;2023-04-19T05:26:28;21.30;;;16.08;;
21868;SDS011;11099;41.564;23.296;2023-04-19T05:28:53;19.88;;;16.00;;
21868;SDS011;11099;41.564;23.296;2023-04-19T05:31:20;22.20;;;15.65;;
21868;SDS011;11099;41.564;23.296;2023-04-19T05:33:46;17.85;;;10.48;;
21868;SDS011;11099;41.564;23.296;2023-04-19T05:36:11;8.70;;;6.85;;
21868;SDS011;11099;41.564;23.296;2023-04-19T05:38:37;10.70;;;8.48;;
21868;SDS011;11099;41.564;23.296;2023-04-19T05:41:02;14.65;;;10.02;;
21868;SDS011;11099;41.564;23.296;2023-04-19T05:43:29;13.25;;;10.80;;
21868;SDS011;11099;41.564;23.296;2023-04-19T05:45:55;12.68;;;10.60;;
21868;SDS011;11099;41.564;23.296;2023-04-19T05:48:20;15.15;;;13.10;;
21868;SDS011;11099;41.564;23.296;2023-04-19T05:50:46;17.67;;;14.00;;
21868;SDS011;11099;41.564;23.296;2023-04-19T05:53:11;18.90;;;14.60;;
21868;SDS011;11099;41.564;23.296;2023-04-19T05:55:37;16.95;;;13.32;;
21868;SDS011;11099;41.564;23.296;2023-04-19T05:58:02;18.50;;;13.73;;
21868;SDS011;11099;41.564;23.296;2023-04-19T06:00:28;18.48;;;15.10;;
21868;SDS011;11099;41.564;23.296;2023-04-19T06:02:53;16.90;;;14.23;;
21868;SDS011;11099;41.564;23.296;2023-04-19T06:05:19;25.42;;;16.63;;
21868;SDS011;11099;41.564;23.296;2023-04-19T06:07:44;17.80;;;15.40;;
21868;SDS011;11099;41.564;23.296;2023-04-19T06:10:10;13.60;;;10.27;;
21868;SDS011;11099;41.564;23.296;2023-04-19T06:12:35;13.20;;;10.30;;
21868;SDS011;11099;41.564;23.296;2023-04-19T06:15:01;13.63;;;11.25;;
21868;SDS011;11099;41.564;23.296;2023-04-19T06:17:27;15.60;;;11.52;;
21868;SDS011;11099;41.564;23.296;2023-04-19T06:19:53;19.42;;;12.23;;
21868;SDS011;11099;41.564;23.296;2023-04-19T06:22:19;15.85;;;12.63;;
21868;SDS011;11099;41.564;23.296;2023-04-19T06:24:45;15.50;;;12.52;;
21868;SDS011;11099;41.564;23.296;2023-04-19T06:27:11;16.50;;;12.38;;
21868;SDS011;11099;41.564;23.296;2023-04-19T06:29:37;22.77;;;19.17;;
21868;SDS011;11099;41.564;23.296;2023-04-19T06:32:03;26.42;;;15.77;;
21868;SDS011;11099;41.564;23.296;2023-04-19T06:34:28;21.80;;;17.55;;
21868;SDS011;11099;41.564;23.296;2023-04-19T06:36:54;15.30;;;12.57;;
21868;SDS011;11099;41.564;23.296;2023-04-19T06:39:19;13.38;;;10.50;;
21868;SDS011;11099;41.564;23.296;2023-04-19T06:41:45;14.65;;;12.20;;
21868;SDS011;11099;41.564;23.296;2023-04-19T06:44:10;14.63;;;12.05;;
21868;SDS011;11099;41.564;23.296;2023-04-19T06:46:37;13.38;;;11.20;;
21868;SDS011;11099;41.564;23.296;2023-04-19T06:49:03;12.93;;;10.60;;
21868;SDS011;11099;41.564;23.296;2023-04-19T06:51:28;14.57;;;11.82;;
21868;SDS011;11099;41.564;23.296;2023-04-19T06:53:54;9.77;;;8.65;;
21868;SDS011;11099;41.564;23.296;2023-04-19T06:56:37;9.52;;;7.22;;
21868;SDS011;11099;41.564;23.296;2023-04-19T06:59:09;7.70;;;6.70;;
21868;SDS011;11099;41.564;23.296;2023-04-19T07:01:39;11.85;;;7.95;;
21868;SDS011;11099;41.564;23.296;2023-04-19T07:04:05;10.10;;;7.32;;
21868;SDS011;11099;41.564;23.296;2023-04-19T07:06:32;8.80;;;6.88;;
21868;SDS011;11099;41.564;23.296;2023-04-19T07:09:02;9.35;;;7.10;;
21868;SDS011;11099;41.564;23.296;2023-04-19T07:11:28;8.40;;;7.57;;
21868;SDS011;11099;41.564;23.296;2023-04-19T07:13:54;9.57;;;8.30;;
21868;SDS011;11099;41.564;23.296;2023-04-19T07:16:20;8.73;;;7.93;;
21868;SDS011;11099;41.564;23.296;2023-04-19T07:18:45;13.73;;;8.90;;
21868;SDS011;11099;41.564;23.296;2023-04-19T07:21:13;10.75;;;8.55;;
21868;SDS011;11099;41.564;23.296;2023-04-19T07:23:39;8.95;;;7.90;;
21868;SDS011;11099;41.564;23.296;2023-04-19T07:26:07;12.70;;;8.60;;
21868;SDS011;11099;41.564;23.296;2023-04-19T07:28:32;8.95;;;7.40;;
21868;SDS011;11099;41.564;23.296;2023-04-19T07:30:58;7.68;;;6.97;;
21868;SDS011;11099;41.564;23.296;2023-04-19T07:33:25;7.45;;;6.78;;
21868;SDS011;11099;41.564;23.296;2023-04-19T07:35:52;7.88;;;7.00;;
21868;SDS011;11099;41.564;23.296;2023-04-19T07:38:18;7.60;;;6.57;;
21868;SDS011;11099;41.564;23.296;2023-04-19T07:40:43;8.90;;;7.40;;
21868;SDS011;11099;41.564;23.296;2023-04-19T07:43:09;8.30;;;7.50;;
21868;SDS011;11099;41.564;23.296;2023-04-19T07:45:37;8.68;;;7.78;;
21868;SDS011;11099;41.564;23.296;2023-04-19T07:48:05;7.70;;;7.00;;
21868;SDS011;11099;41.564;23.296;2023-04-19T07:50:31;11.55;;;7.43;;
21868;SDS011;11099;41.564;23.296;2023-04-19T07:52:56;8.32;;;7.53;;
21868;SDS011;11099;41.564;23.296;2023-04-19T07:55:21;8.00;;;7.20;;
21868;SDS011;11099;41.564;23.296;2023-04-19T07:57:48;8.50;;;7.55;;
21868;SDS011;11099;41.564;23.296;2023-04-19T08:00:14;10.95;;;8.40;;
21868;SDS011;11099;41.564;23.296;2023-04-19T08:02:43;11.02;;;8.05;;
21868;SDS011;11099;41.564;23.296;2023-04-19T08:05:09;11.48;;;7.70;;
21868;SDS011;11099;41.564;23.296;2023-04-19T08:07:36;7.57;;;6.80;;
21868;SDS011;11099;41.564;23.296;2023-04-19T08:10:02;7.97;;;7.28;;
21868;SDS011;11099;41.564;23.296;2023-04-19T08:12:29;9.57;;;6.97;;
21868;SDS011;11099;41.564;23.296;2023-04-19T08:14:54;7.93;;;7.13;;
21868;SDS011;11099;41.564;23.296;2023-04-19T08:17:20;7.38;;;6.68;;
21868;SDS011;11099;41.564;23.296;2023-04-19T08:19:48;9.10;;;7.60;;
21868;SDS011;11099;41.564;23.296;2023-04-19T08:22:14;8.93;;;8.13;;
21868;SDS011;11099;41.564;23.296;2023-04-19T08:24:41;9.07;;;7.03;;
21868;SDS011;11099;41.564;23.296;2023-04-19T08:27:07;13.63;;;7.90;;
21868;SDS011;11099;41.564;23.296;2023-04-19T08:29:33;9.23;;;7.63;;
21868;SDS011;11099;41.564;23.296;2023-04-19T08:32:00;8.02;;;7.22;;
21868;SDS011;11099;41.564;23.296;2023-04-19T08:34:26;8.93;;;7.32;;
21868;SDS011;11099;41.564;23.296;2023-04-19T08:36:52;7.07;;;6.38;;
21868;SDS011;11099;41.564;23.296;2023-04-19T08:39:17;11.38;;;8.13;;
21868;SDS011;11099;41.564;23.296;2023-04-19T08:41:43;8.30;;;6.85;;
21868;SDS011;11099;41.564;23.296;2023-04-19T08:44:12;7.72;;;7.03;;
21868;SDS011;11099;41.564;23.296;2023-04-19T08:46:38;7.47;;;6.72;;
21868;SDS011;11099;41.564;23.296;2023-04-19T08:49:06;7.95;;;7.15;;
21868;SDS011;11099;41.564;23.296;2023-04-19T08:51:33;11.25;;;6.78;;
21868;SDS011;11099;41.564;23.296;2023-04-19T08:53:59;7.95;;;7.25;;
21868;SDS011;11099;41.564;23.296;2023-04-19T08:58:54;10.57;;;7.45;;
21868;SDS011;11099;41.564;23.296;2023-04-19T09:01:20;8.20;;;7.18;;
21868;SDS011;11099;41.564;23.296;2023-04-19T09:03:46;8.20;;;7.50;;
21868;SDS011;11099;41.564;23.296;2023-04-19T09:06:11;8.60;;;7.72;;
21868;SDS011;11099;41.564;23.296;2023-04-19T09:08:37;8.63;;;7.20;;
21868;SDS011;11099;41.564;23.296;2023-04-19T09:11:04;7.47;;;6.80;;
21868;SDS011;11099;41.564;23.296;2023-04-19T09:13:30;6.82;;;6.13;;
21868;SDS011;11099;41.564;23.296;2023-04-19T09:15:56;6.28;;;5.68;;
21868;SDS011;11099;41.564;23.296;2023-04-19T09:18:25;11.68;;;5.80;;
21868;SDS011;11099;41.564;23.296;2023-04-19T09:20:51;7.20;;;6.25;;
21868;SDS011;11099;41.564;23.296;2023-04-19T09:23:23;5.97;;;5.47;;
21868;SDS011;11099;41.564;23.296;2023-04-19T09:25:50;7.28;;;6.57;;
21868;SDS011;11099;41.564;23.296;2023-04-19T09:28:29;8.25;;;7.20;;
21868;SDS011;11099;41.564;23.296;2023-04-19T09:33:36;7.07;;;6.38;;
21868;SDS011;11099;41.564;23.296;2023-04-19T09:36:05;9.45;;;8.25;;
21868;SDS011;11099;41.564;23.296;2023-04-19T09:38:50;6.50;;;6.00;;
21868;SDS011;11099;41.564;23.296;2023-04-19T09:41:15;9.10;;;8.13;;
21868;SDS011;11099;41.564;23.296;2023-04-19T09:43:41;6.80;;;6.20;;
21868;SDS011;11099;41.564;23.296;2023-04-19T09:46:07;7.10;;;6.22;;
21868;SDS011;11099;41.564;23.296;2023-04-19T09:48:33;9.07;;;7.75;;
21868;SDS011;11099;41.564;23.296;2023-04-19T09:50:59;6.95;;;5.60;;
21868;SDS011;11099;41.564;23.296;2023-04-19T09:53:26;6.25;;;5.68;;
21868;SDS011;11099;41.564;23.296;2023-04-19T09:55:53;5.38;;;4.97;;
21868;SDS011;11099;41.564;23.296;2023-04-19T09:58:19;5.47;;;5.05;;
21868;SDS011;11099;41.564;23.296;2023-04-19T10:00:46;6.90;;;6.20;;
21868;SDS011;11099;41.564;23.296;2023-04-19T10:03:13;7.40;;;5.82;;
21868;SDS011;11099;41.564;23.296;2023-04-19T10:05:40;5.72;;;5.30;;
21868;SDS011;11099;41.564;23.296;2023-04-19T10:08:07;5.22;;;4.80;;
21868;SDS011;11099;41.564;23.296;2023-04-19T10:10:34;5.65;;;5.15;;
21868;SDS011;11099;41.564;23.296;2023-04-19T10:13:01;6.72;;;5.15;;
21868;SDS011;11099;41.564;23.296;2023-04-19T10:15:29;5.07;;;4.68;;
21868;SDS011;11099;41.564;23.296;2023-04-19T10:17:57;5.00;;;4.60;;
21868;SDS011;11099;41.564;23.296;2023-04-19T10:20:29;11.23;;;6.05;;
21868;SDS011;11099;41.564;23.296;2023-04-19T10:23:01;10.48;;;5.72;;
21868;SDS011;11099;41.564;23.296;2023-04-19T10:25:31;5.63;;;5.22;;
21868;SDS011;11099;41.564;23.296;2023-04-19T10:27:57;6.25;;;5.65;;
21868;SDS011;11099;41.564;23.296;2023-04-19T10:30:23;5.47;;;5.07;;
21868;SDS011;11099;41.564;23.296;2023-04-19T10:32:53;5.65;;;5.18;;
21868;SDS011;11099;41.564;23.296;2023-04-19T10:35:21;5.53;;;5.03;;
21868;SDS011;11099;41.564;23.296;2023-04-19T10:43:20;5.15;;;4.75;;
21868;SDS011;11099;41.564;23.296;2023-04-19T10:45:49;5.13;;;4.63;;
21868;SDS011;11099;41.564;23.296;2023-04-19T10:51:11;5.30;;;4.78;;
21868;SDS011;11099;41.564;23.296;2023-04-19T10:56:14;8.25;;;5.35;;
21868;SDS011;11099;41.564;23.296;2023-04-19T11:01:44;5.18;;;4.78;;
21868;SDS011;11099;41.564;23.296;2023-04-19T11:09:44;5.53;;;4.97;;
21868;SDS011;11099;41.564;23.296;2023-04-19T11:19:52;4.40;;;4.10;;
21868;SDS011;11099;41.564;23.296;2023-04-19T11:25:14;4.45;;;4.15;;
21868;SDS011;11099;41.564;23.296;2023-04-19T11:27:47;4.35;;;3.88;;
21868;SDS011;11099;41.564;23.296;2023-04-19T11:30:26;4.30;;;4.00;;
21868;SDS011;11099;41.564;23.296;2023-04-19T11:32:56;4.80;;;4.50;;
21868;SDS011;11099;41.564;23.296;2023-04-19T11:35:22;3.85;;;3.55;;
21868;SDS011;11099;41.564;23.296;2023-04-19T11:37:49;4.57;;;4.25;;
21868;SDS011;11099;41.564;23.296;2023-04-19T11:40:16;5.05;;;3.30;;
21868;SDS011;11099;41.564;23.296;2023-04-19T11:42:43;4.32;;;3.35;;
21868;SDS011;11099;41.564;23.296;2023-04-19T11:45:09;4.07;;;3.78;;
21868;SDS011;11099;41.564;23.296;2023-04-19T11:47:45;3.75;;;3.45;;
21868;SDS011;11099;41.564;23.296;2023-04-19T11:53:22;3.53;;;3.33;;
21868;SDS011;11099;41.564;23.296;2023-04-19T11:55:49;4.15;;;3.85;;
21868;SDS011;11099;41.564;23.296;2023-04-19T12:00:52;3.38;;;3.10;;
21868;SDS011;11099;41.564;23.296;2023-04-19T12:03:21;3.33;;;3.03;;
21868;SDS011;11099;41.564;23.296;2023-04-19T12:05:51;4.13;;;3.83;;
21868;SDS011;11099;41.564;23.296;2023-04-19T12:08:30;4.07;;;3.53;;
21868;SDS011;11099;41.564;23.296;2023-04-19T12:11:03;4.45;;;4.15;;
21868;SDS011;11099;41.564;23.296;2023-04-19T12:13:30;2.97;;;2.78;;
21868;SDS011;11099;41.564;23.296;2023-04-19T12:15:56;3.83;;;3.58;;
21868;SDS011;11099;41.564;23.296;2023-04-19T12:18:22;6.68;;;2.90;;
21868;SDS011;11099;41.564;23.296;2023-04-19T12:20:49;5.10;;;2.88;;
21868;SDS011;11099;41.564;23.296;2023-04-19T12:23:17;4.03;;;3.10;;
21868;SDS011;11099;41.564;23.296;2023-04-19T12:25:45;5.68;;;3.25;;
21868;SDS011;11099;41.564;23.296;2023-04-19T12:28:13;2.95;;;2.65;;
21868;SDS011;11099;41.564;23.296;2023-04-19T12:30:40;14.18;;;2.55;;
21868;SDS011;11099;41.564;23.296;2023-04-19T12:33:06;1.75;;;1.65;;
21868;SDS011;11099;41.564;23.296;2023-04-19T12:35:32;5.13;;;1.85;;
21868;SDS011;11099;41.564;23.296;2023-04-19T12:37:58;21.67;;;3.35;;
21868;SDS011;11099;41.564;23.296;2023-04-19T12:40:24;2.20;;;1.88;;
21868;SDS011;11099;41.564;23.296;2023-04-19T12:42:51;2.13;;;1.70;;
21868;SDS011;11099;41.564;23.296;2023-04-19T12:45:17;2.38;;;2.13;;
21868;SDS011;11099;41.564;23.296;2023-04-19T12:47:44;4.78;;;2.10;;
21868;SDS011;11099;41.564;23.296;2023-04-19T12:50:11;4.90;;;2.00;;
21868;SDS011;11099;41.564;23.296;2023-04-19T12:52:39;5.35;;;2.60;;
21868;SDS011;11099;41.564;23.296;2023-04-19T12:55:05;56.15;;;7.43;;
21868;SDS011;11099;41.564;23.296;2023-04-19T12:57:31;8.93;;;2.78;;
21868;SDS011;11099;41.564;23.296;2023-04-19T12:59:57;5.93;;;3.28;;
21868;SDS011;11099;41.564;23.296;2023-04-19T13:02:23;15.77;;;3.22;;
21868;SDS011;11099;41.564;23.296;2023-04-19T13:04:49;9.30;;;3.35;;
21868;SDS011;11099;41.564;23.296;2023-04-19T13:07:15;3.95;;;2.40;;
21868;SDS011;11099;41.564;23.296;2023-04-19T13:09:41;5.35;;;2.50;;
21868;SDS011;11099;41.564;23.296;2023-04-19T13:12:08;5.20;;;3.47;;
21868;SDS011;11099;41.564;23.296;2023-04-19T13:14:33;4.25;;;2.55;;
21868;SDS011;11099;41.564;23.296;2023-04-19T13:16:59;2.00;;;1.90;;
21868;SDS011;11099;41.564;23.296;2023-04-19T13:19:25;3.15;;;1.90;;
21868;SDS011;11099;41.564;23.296;2023-04-19T13:21:51;3.53;;;1.92;;
21868;SDS011;11099;41.564;23.296;2023-04-19T13:24:16;3.70;;;2.10;;
21868;SDS011;11099;41.564;23.296;2023-04-19T13:26:42;3.88;;;2.20;;
21868;SDS011;11099;41.564;23.296;2023-04-19T13:29:10;2.22;;;2.03;;
21868;SDS011;11099;41.564;23.296;2023-04-19T13:31:36;2.85;;;1.58;;
21868;SDS011;11099;41.564;23.296;2023-04-19T13:34:01;1.08;;;0.98;;
21868;SDS011;11099;41.564;23.296;2023-04-19T13:36:27;0.70;;;0.70;;
21868;SDS011;11099;41.564;23.296;2023-04-19T13:38:52;0.95;;;0.70;;
21868;SDS011;11099;41.564;23.296;2023-04-19T13:41:18;0.85;;;0.85;;
21868;SDS011;11099;41.564;23.296;2023-04-19T13:43:45;3.15;;;0.70;;
21868;SDS011;11099;41.564;23.296;2023-04-19T13:46:11;2.97;;;0.80;;
21868;SDS011;11099;41.564;23.296;2023-04-19T13:48:37;1.05;;;0.80;;
21868;SDS011;11099;41.564;23.296;2023-04-19T13:51:02;1.25;;;0.68;;
21868;SDS011;11099;41.564;23.296;2023-04-19T13:53:28;3.22;;;0.80;;
21868;SDS011;11099;41.564;23.296;2023-04-19T13:55:54;0.98;;;0.70;;
21868;SDS011;11099;41.564;23.296;2023-04-19T13:58:20;1.30;;;0.82;;
21868;SDS011;11099;41.564;23.296;2023-04-19T14:00:46;0.60;;;0.60;;
21868;SDS011;11099;41.564;23.296;2023-04-19T14:03:15;2.28;;;0.70;;
21868;SDS011;11099;41.564;23.296;2023-04-19T14:05:41;1.02;;;0.90;;
21868;SDS011;11099;41.564;23.296;2023-04-19T14:08:07;1.02;;;0.93;;
21868;SDS011;11099;41.564;23.296;2023-04-19T14:10:33;2.15;;;1.17;;
21868;SDS011;11099;41.564;23.296;2023-04-19T14:12:59;2.38;;;1.25;;
21868;SDS011;11099;41.564;23.296;2023-04-19T14:15:25;1.60;;;1.50;;
21868;SDS011;11099;41.564;23.296;2023-04-19T14:17:50;2.08;;;1.33;;
21868;SDS011;11099;41.564;23.296;2023-04-19T14:20:17;1.10;;;1.10;;
21868;SDS011;11099;41.564;23.296;2023-04-19T14:22:42;2.45;;;2.25;;
21868;SDS011;11099;41.564;23.296;2023-04-19T14:25:10;1.42;;;1.33;;
21868;SDS011;11099;41.564;23.296;2023-04-19T14:27:36;1.42;;;1.33;;
21868;SDS011;11099;41.564;23.296;2023-04-19T14:30:02;4.35;;;2.88;;
21868;SDS011;11099;41.564;23.296;2023-04-19T14:32:29;2.97;;;2.60;;
21868;SDS011;11099;41.564;23.296;2023-04-19T14:34:54;2.30;;;2.13;;
21868;SDS011;11099;41.564;23.296;2023-04-19T14:37:20;2.10;;;1.92;;
21868;SDS011;11099;41.564;23.296;2023-04-19T14:39:47;1.20;;;1.20;;
21868;SDS011;11099;41.564;23.296;2023-04-19T14:42:12;1.90;;;1.80;;
21868;SDS011;11099;41.564;23.296;2023-04-19T14:44:38;3.30;;;1.80;;
21868;SDS011;11099;41.564;23.296;2023-04-19T14:47:04;1.50;;;1.40;;
21868;SDS011;11099;41.564;23.296;2023-04-19T14:49:30;3.60;;;1.70;;
21868;SDS011;11099;41.564;23.296;2023-04-19T14:51:55;3.60;;;2.90;;
21868;SDS011;11099;41.564;23.296;2023-04-19T14:54:21;2.53;;;2.40;;
21868;SDS011;11099;41.564;23.296;2023-04-19T14:56:46;2.65;;;2.13;;
21868;SDS011;11099;41.564;23.296;2023-04-19T14:59:12;1.40;;;1.30;;
21868;SDS011;11099;41.564;23.296;2023-04-19T15:01:37;1.40;;;1.30;;